createdAt,value
2022-11-14T00:01:08.497Z,4.20
2022-11-14T00:03:36.771Z,4.50
2022-11-14T00:06:07.235Z,2.83
2022-11-14T00:08:35.857Z,4.87
2022-11-14T00:11:04.283Z,3.30
2022-11-14T00:13:32.443Z,3.67
2022-11-14T00:16:01.922Z,3.77
2022-11-14T00:18:30.384Z,4.17
2022-11-14T00:20:58.736Z,2.33
2022-11-14T00:23:26.879Z,5.77
2022-11-14T00:25:55.035Z,3.70
2022-11-14T00:28:23.193Z,3.10
2022-11-14T00:30:51.353Z,3.53
2022-11-14T00:33:22.154Z,3.07
2022-11-14T00:35:54.112Z,2.73
2022-11-14T00:38:22.430Z,3.97
2022-11-14T00:40:50.625Z,3.57
2022-11-14T00:43:18.870Z,2.57
2022-11-14T00:45:47.412Z,2.63
2022-11-14T00:48:15.845Z,2.40
2022-11-14T00:50:45.716Z,2.40
2022-11-14T00:53:15.039Z,3.17
2022-11-14T00:55:43.291Z,4.37
2022-11-14T00:58:11.676Z,3.47
2022-11-14T01:00:39.995Z,4.40
2022-11-14T01:03:08.204Z,2.17
2022-11-14T01:05:36.372Z,3.80
2022-11-14T01:08:06.040Z,5.13
2022-11-14T01:10:34.214Z,3.03
2022-11-14T01:13:02.372Z,5.50
2022-11-14T01:15:30.527Z,2.97
2022-11-14T01:17:58.675Z,4.07
2022-11-14T01:20:26.838Z,3.30
2022-11-14T01:22:54.978Z,3.67
2022-11-14T01:25:24.475Z,5.37
2022-11-14T01:27:52.618Z,3.47
2022-11-14T01:30:20.748Z,3.17
2022-11-14T01:32:48.912Z,4.80
2022-11-14T01:35:17.166Z,4.87
2022-11-14T01:37:45.444Z,2.60
2022-11-14T01:40:14.037Z,5.17
2022-11-14T01:42:43.584Z,3.27
2022-11-14T01:45:30.345Z,3.63
2022-11-14T01:47:58.688Z,4.67
2022-11-14T01:50:27.462Z,3.43
2022-11-14T01:52:55.613Z,3.80
2022-11-14T01:55:23.771Z,5.00
2022-11-14T01:57:53.322Z,4.97
2022-11-14T02:00:21.471Z,4.80
2022-11-14T02:02:49.805Z,3.33
2022-11-14T02:05:18.943Z,6.53
2022-11-14T02:07:47.138Z,6.03
2022-11-14T02:10:17.784Z,4.40
2022-11-14T02:12:46.366Z,9.73
2022-11-14T02:15:16.235Z,3.20
2022-11-14T02:17:45.312Z,7.00
2022-11-14T02:20:19.832Z,4.87
2022-11-14T02:22:47.974Z,2.97
2022-11-14T02:25:18.347Z,3.27
2022-11-14T02:27:46.518Z,3.87
2022-11-14T02:30:16.494Z,3.03
2022-11-14T02:33:09.501Z,5.77
2022-11-14T02:35:34.165Z,4.80
2022-11-14T02:38:02.350Z,3.97
2022-11-14T02:40:30.511Z,4.67
2022-11-14T02:42:58.701Z,3.80
2022-11-14T02:45:26.894Z,3.60
2022-11-14T02:47:55.073Z,4.13
2022-11-14T02:50:23.212Z,3.37
2022-11-14T02:52:53.832Z,4.20
2022-11-14T02:55:22.047Z,3.87
2022-11-14T02:57:50.238Z,3.97
2022-11-14T03:00:19.129Z,4.50
2022-11-14T03:02:47.295Z,3.27
2022-11-14T03:05:15.522Z,2.90
2022-11-14T03:07:44.067Z,3.43
2022-11-14T03:10:13.932Z,4.33
2022-11-14T03:12:42.195Z,2.60
2022-11-14T03:15:11.028Z,5.03
2022-11-14T03:17:39.196Z,3.63
2022-11-14T03:20:08.003Z,3.53
2022-11-14T03:22:36.163Z,3.77
2022-11-14T03:25:04.312Z,3.67
2022-11-14T03:27:33.878Z,2.90
2022-11-14T03:30:02.048Z,4.13
2022-11-14T03:32:30.191Z,3.53
2022-11-14T03:34:58.836Z,3.83
2022-11-14T03:37:26.986Z,3.97
2022-11-14T03:39:55.139Z,5.87
2022-11-14T03:42:23.294Z,3.70
2022-11-14T03:44:52.773Z,3.73
2022-11-14T03:47:20.915Z,3.33
2022-11-14T03:49:49.075Z,4.23
2022-11-14T03:52:17.234Z,5.13
2022-11-14T03:54:45.706Z,4.07
2022-11-14T03:57:13.894Z,3.30
2022-11-14T03:59:42.025Z,3.13
2022-11-14T04:02:11.537Z,4.33
2022-11-14T04:04:39.686Z,3.67
2022-11-14T04:07:07.930Z,6.27
2022-11-14T04:09:36.148Z,3.73
2022-11-14T04:12:04.293Z,3.07
2022-11-14T04:14:32.438Z,5.50
2022-11-14T04:17:00.563Z,3.10
2022-11-14T04:19:30.087Z,3.93
2022-11-14T04:21:58.253Z,2.87
2022-11-14T04:24:26.395Z,3.77
2022-11-14T04:26:54.563Z,3.40
2022-11-14T04:29:22.947Z,2.80
2022-11-14T04:31:51.082Z,4.60
2022-11-14T04:34:19.301Z,5.70
2022-11-14T04:36:51.115Z,3.70
2022-11-14T04:39:19.281Z,3.03
2022-11-14T04:41:47.457Z,6.00
2022-11-14T04:44:15.621Z,3.70
2022-11-14T04:46:43.771Z,4.90
2022-11-14T04:49:11.934Z,3.43
2022-11-14T04:51:40.074Z,3.87
2022-11-14T04:54:09.727Z,3.73
2022-11-14T04:56:37.874Z,4.07
2022-11-14T04:59:06.062Z,4.37
2022-11-14T05:01:34.295Z,4.73
2022-11-14T05:04:02.538Z,4.03
2022-11-14T05:06:30.694Z,4.90
2022-11-14T05:08:58.869Z,4.90
2022-11-14T05:11:29.498Z,5.17
2022-11-14T05:13:57.764Z,4.07
2022-11-14T05:16:25.947Z,4.57
2022-11-14T05:18:55.132Z,4.77
2022-11-14T05:21:23.608Z,4.83
2022-11-14T05:23:51.769Z,6.67
2022-11-14T05:26:20.414Z,5.13
2022-11-14T05:28:49.915Z,4.17
2022-11-14T05:31:18.679Z,5.00
2022-11-14T05:33:48.021Z,4.70
2022-11-14T05:36:17.256Z,5.57
2022-11-14T05:38:45.839Z,6.63
2022-11-14T05:41:15.120Z,5.13
2022-11-14T05:43:43.504Z,7.57
2022-11-14T05:46:13.745Z,6.17
2022-11-14T05:48:42.496Z,5.27
2022-11-14T05:51:11.886Z,4.63
2022-11-14T05:53:40.133Z,4.30
2022-11-14T05:56:09.299Z,4.70
2022-11-14T05:58:37.479Z,4.67
2022-11-14T06:01:06.103Z,5.10
2022-11-14T06:03:36.531Z,4.77
2022-11-14T06:06:05.149Z,6.23
2022-11-14T06:08:33.450Z,4.53
2022-11-14T06:11:04.358Z,6.57
2022-11-14T06:13:32.831Z,7.40
2022-11-14T06:16:02.049Z,5.87
2022-11-14T06:18:30.681Z,6.77
2022-11-14T06:21:02.128Z,6.33
2022-11-14T06:23:30.654Z,6.83
2022-11-14T06:26:02.129Z,6.57
2022-11-14T06:28:30.948Z,6.40
2022-11-14T06:31:00.086Z,5.97
2022-11-14T06:33:28.518Z,8.10
2022-11-14T06:36:00.264Z,10.70
2022-11-14T06:38:30.008Z,7.23
2022-11-14T06:41:03.695Z,5.87
2022-11-14T06:43:34.090Z,8.37
2022-11-14T06:46:02.282Z,8.10
2022-11-14T06:48:30.886Z,6.87
2022-11-14T06:51:00.093Z,7.20
2022-11-14T06:53:31.354Z,7.67
2022-11-14T06:56:00.220Z,7.47
2022-11-14T06:58:29.374Z,6.43
2022-11-14T07:00:57.948Z,6.50
2022-11-14T07:03:26.119Z,6.90
2022-11-14T07:05:54.310Z,7.57
2022-11-14T07:08:22.471Z,6.30
2022-11-14T07:10:51.974Z,8.97
2022-11-14T07:13:20.097Z,7.30
2022-11-14T07:15:51.996Z,9.63
2022-11-14T07:18:20.254Z,8.07
2022-11-14T07:20:48.635Z,6.83
2022-11-14T07:23:22.492Z,7.03
2022-11-14T07:25:52.595Z,9.00
2022-11-14T07:28:20.730Z,6.67
2022-11-14T07:30:48.912Z,9.20
2022-11-14T07:33:17.070Z,5.70
2022-11-14T07:35:45.267Z,8.13
2022-11-14T07:38:13.449Z,6.33
2022-11-14T07:40:41.763Z,7.70
2022-11-14T07:43:11.265Z,9.80
2022-11-14T07:45:39.455Z,8.37
2022-11-14T07:48:07.804Z,7.27
2022-11-14T07:50:35.942Z,9.40
2022-11-14T07:53:04.095Z,8.00
2022-11-14T07:55:32.279Z,11.53
2022-11-14T07:58:01.070Z,7.13
2022-11-14T08:00:31.729Z,6.87
2022-11-14T08:02:59.849Z,6.63
2022-11-14T08:05:28.297Z,11.97
2022-11-14T08:07:56.471Z,8.57
2022-11-14T08:10:26.101Z,7.77
2022-11-14T08:13:17.517Z,7.00
2022-11-14T08:15:49.516Z,6.23
2022-11-14T08:18:17.680Z,6.17
2022-11-14T08:20:45.956Z,7.80
2022-11-14T08:23:14.326Z,9.47
2022-11-14T08:25:42.859Z,8.37
2022-11-14T08:28:11.042Z,8.73
2022-11-14T08:30:39.233Z,8.40
2022-11-14T08:33:08.995Z,9.03
2022-11-14T08:35:37.216Z,10.00
2022-11-14T08:38:05.389Z,10.70
2022-11-14T08:40:33.547Z,10.10
2022-11-14T08:43:02.433Z,7.97
2022-11-14T08:45:30.678Z,10.30
2022-11-14T08:47:58.852Z,7.60
2022-11-14T08:50:28.345Z,11.30
2022-11-14T08:52:56.780Z,10.47
2022-11-14T08:55:24.973Z,8.70
2022-11-14T08:57:54.739Z,13.73
2022-11-14T09:00:23.506Z,9.20
2022-11-14T09:02:51.791Z,9.27
2022-11-14T09:05:19.979Z,10.67
2022-11-14T09:07:49.508Z,9.30
2022-11-14T09:10:17.769Z,11.10
2022-11-14T09:12:45.931Z,11.43
2022-11-14T09:15:14.110Z,11.83
2022-11-14T09:17:42.276Z,8.90
2022-11-14T09:20:10.877Z,10.63
2022-11-14T09:22:39.035Z,9.63
2022-11-14T09:25:10.004Z,10.47
2022-11-14T09:27:38.179Z,10.07
2022-11-14T09:30:07.272Z,12.40
2022-11-14T09:32:35.424Z,10.47
2022-11-14T09:35:03.579Z,11.47
2022-11-14T09:37:31.726Z,9.10
2022-11-14T09:39:59.887Z,11.03
2022-11-14T09:42:37.332Z,12.17
2022-11-14T09:45:07.370Z,12.20
2022-11-14T09:47:40.066Z,13.90
2022-11-14T09:50:09.507Z,13.57
2022-11-14T09:52:38.705Z,13.50
2022-11-14T09:55:12.936Z,14.77
2022-11-14T09:57:42.712Z,14.37
2022-11-14T10:00:14.817Z,14.27
2022-11-14T10:02:48.280Z,13.23
2022-11-14T10:05:24.728Z,13.30
2022-11-14T10:08:01.479Z,14.80
2022-11-14T10:10:38.810Z,14.93
2022-11-14T10:13:15.136Z,15.03
2022-11-14T10:15:46.856Z,17.43
2022-11-14T10:18:20.515Z,15.17
2022-11-14T10:20:51.576Z,14.40
2022-11-14T10:23:25.542Z,14.40
2022-11-14T10:25:57.056Z,13.27
2022-11-14T10:28:34.637Z,13.67
2022-11-14T10:31:05.981Z,14.10
2022-11-14T10:33:38.175Z,9.83
2022-11-14T10:36:09.394Z,12.37
2022-11-14T10:38:40.654Z,13.07
2022-11-14T10:41:19.273Z,11.60
2022-11-14T10:43:58.748Z,11.60
2022-11-14T10:46:28.515Z,10.97
2022-11-14T10:49:00.167Z,11.03
2022-11-14T10:51:33.584Z,11.30
2022-11-14T10:54:04.279Z,8.97
2022-11-14T10:56:32.484Z,9.33
2022-11-14T10:59:01.997Z,10.77
2022-11-14T11:01:40.495Z,11.37
2022-11-14T11:04:15.831Z,12.73
2022-11-14T11:06:44.171Z,12.47
2022-11-14T11:09:33.045Z,7.10
2022-11-14T11:12:02.492Z,3.97
2022-11-14T11:14:32.301Z,4.63
2022-11-14T11:17:10.681Z,3.73
2022-11-14T11:19:39.040Z,3.33
2022-11-14T11:22:07.612Z,3.53
2022-11-14T11:24:36.798Z,5.23
2022-11-14T11:27:15.488Z,3.47
2022-11-14T11:29:45.004Z,4.47
2022-11-14T11:32:13.488Z,2.87
2022-11-14T11:34:41.814Z,3.33
2022-11-14T11:37:16.918Z,2.83
2022-11-14T11:39:48.074Z,3.13
2022-11-14T11:42:18.011Z,2.63
2022-11-14T11:44:48.825Z,2.27
2022-11-14T11:47:18.993Z,3.43
2022-11-14T11:49:53.519Z,3.03
2022-11-14T11:52:28.136Z,2.97
2022-11-14T11:55:00.972Z,2.40
2022-11-14T11:57:30.765Z,2.97
2022-11-14T12:00:04.736Z,3.03
2022-11-14T12:02:32.995Z,2.37
2022-11-14T12:05:02.231Z,3.57
2022-11-14T12:07:35.832Z,2.33
2022-11-14T12:10:11.085Z,3.23
2022-11-14T12:12:50.928Z,2.47
2022-11-14T12:15:24.495Z,2.67
2022-11-14T12:18:07.914Z,2.10
2022-11-14T12:20:49.308Z,3.10
2022-11-14T12:23:28.393Z,2.23
2022-11-14T12:26:07.457Z,2.10
2022-11-14T12:28:47.721Z,2.60
2022-11-14T12:31:18.023Z,3.00
2022-11-14T12:33:47.963Z,2.60
2022-11-14T12:36:16.142Z,4.60
2022-11-14T12:38:45.874Z,4.40
2022-11-14T12:41:14.672Z,2.67
2022-11-14T12:43:44.221Z,4.53
2022-11-14T12:46:13.686Z,6.00
2022-11-14T12:48:43.778Z,2.80
2022-11-14T12:51:41.965Z,11.20
2022-11-14T12:54:30.247Z,3.67
2022-11-14T12:57:01.608Z,4.37
2022-11-14T12:59:38.523Z,4.40
2022-11-14T13:02:22.359Z,3.07
2022-11-14T13:04:59.459Z,2.30
2022-11-14T13:07:34.615Z,4.80
2022-11-14T13:10:14.743Z,2.63
2022-11-14T13:13:01.231Z,3.17
2022-11-14T13:15:49.394Z,5.27
2022-11-14T13:18:39.310Z,3.60
2022-11-14T13:21:37.795Z,2.87
2022-11-14T13:24:09.361Z,3.67
2022-11-14T13:26:55.195Z,4.13
2022-11-14T13:29:48.926Z,3.43
2022-11-14T13:32:32.024Z,6.10
2022-11-14T13:35:01.421Z,3.23
2022-11-14T13:37:40.024Z,4.13
2022-11-14T13:40:14.785Z,3.83
2022-11-14T13:42:50.455Z,4.60
2022-11-14T13:45:37.223Z,2.97
2022-11-14T13:48:18.487Z,5.00
2022-11-14T13:50:49.680Z,3.30
2022-11-14T13:53:23.744Z,3.17
2022-11-14T13:56:02.986Z,3.00
2022-11-14T13:58:39.509Z,3.83
2022-11-14T14:01:13.567Z,4.03
2022-11-14T14:03:47.904Z,3.83
2022-11-14T14:06:21.290Z,3.00
2022-11-14T14:09:01.103Z,5.47
2022-11-14T14:11:44.367Z,2.83
2022-11-14T14:14:18.703Z,3.57
2022-11-14T14:16:51.010Z,3.77
2022-11-14T14:19:25.881Z,3.03
2022-11-14T14:21:58.928Z,2.67
2022-11-14T14:24:38.510Z,7.33
2022-11-14T14:27:10.907Z,3.20
2022-11-14T14:29:43.103Z,3.40
2022-11-14T14:32:13.506Z,3.20
2022-11-14T14:34:42.343Z,3.90
2022-11-14T14:37:20.517Z,6.33
2022-11-14T14:40:03.193Z,4.23
2022-11-14T14:42:36.088Z,2.40
2022-11-14T14:45:05.167Z,3.50
2022-11-14T14:47:38.123Z,2.17
2022-11-14T14:50:07.548Z,3.00
2022-11-14T14:52:36.975Z,2.43
2022-11-14T14:55:09.334Z,3.90
2022-11-14T14:57:37.469Z,3.80
2022-11-14T15:00:08.134Z,3.17
2022-11-14T15:02:36.356Z,3.30
2022-11-14T15:05:05.247Z,3.23
2022-11-14T15:07:34.080Z,4.03
2022-11-14T15:10:03.418Z,4.57
2022-11-14T15:12:33.375Z,3.33
2022-11-14T15:15:02.558Z,6.77
2022-11-14T15:17:35.629Z,5.30
2022-11-14T15:20:04.708Z,3.63
2022-11-14T15:22:33.626Z,4.73
2022-11-14T15:25:23.900Z,3.63
2022-11-14T15:27:55.060Z,4.33
2022-11-14T15:30:24.770Z,5.23
2022-11-14T15:32:53.555Z,4.10
2022-11-14T15:35:29.369Z,3.63
2022-11-14T15:38:28.915Z,4.60
2022-11-14T15:41:12.489Z,4.33
2022-11-14T15:43:50.730Z,6.40
2022-11-14T15:46:29.327Z,4.87
2022-11-14T15:48:57.532Z,4.40
2022-11-14T15:51:45.513Z,5.23
2022-11-14T15:54:23.713Z,4.60
2022-11-14T15:56:52.424Z,5.83
2022-11-14T15:59:21.936Z,5.37
2022-11-14T16:01:52.208Z,4.87
2022-11-14T16:04:21.190Z,5.87
2022-11-14T16:06:49.679Z,5.93
2022-11-14T16:09:18.650Z,6.43
2022-11-14T16:11:48.977Z,7.10
2022-11-14T16:14:17.493Z,4.60
2022-11-14T16:16:47.170Z,5.83
2022-11-14T16:19:16.706Z,5.70
2022-11-14T16:21:45.566Z,6.07
2022-11-14T16:24:16.205Z,6.30
2022-11-14T16:26:44.445Z,6.00
2022-11-14T16:29:12.666Z,6.40
2022-11-14T16:31:41.126Z,6.37
2022-11-14T16:34:13.661Z,5.33
2022-11-14T16:36:41.931Z,6.23
2022-11-14T16:39:13.479Z,6.00
2022-11-14T16:41:41.777Z,7.17
2022-11-14T16:44:14.199Z,7.00
2022-11-14T16:46:42.392Z,6.60
2022-11-14T16:49:13.089Z,7.80
2022-11-14T16:51:48.372Z,8.20
2022-11-14T16:54:17.536Z,8.17
2022-11-14T16:56:45.716Z,9.37
2022-11-14T16:59:14.438Z,7.93
2022-11-14T17:01:42.690Z,8.30
2022-11-14T17:04:12.548Z,8.07
2022-11-14T17:06:40.807Z,9.80
2022-11-14T17:09:09.037Z,8.80
2022-11-14T17:11:37.163Z,7.13
2022-11-14T17:14:05.329Z,7.90
2022-11-14T17:16:33.480Z,7.97
2022-11-14T17:19:01.802Z,7.60
2022-11-14T17:21:31.491Z,7.83
2022-11-14T17:24:01.362Z,9.00
2022-11-14T17:26:30.033Z,7.07
2022-11-14T17:28:58.448Z,7.53
2022-11-14T17:31:26.613Z,7.67
2022-11-14T17:33:55.518Z,7.50
2022-11-14T17:36:24.327Z,6.80
2022-11-14T17:38:53.858Z,6.83
2022-11-14T17:41:22.034Z,8.20
2022-11-14T17:43:53.228Z,6.13
2022-11-14T17:46:21.443Z,8.67
2022-11-14T17:48:49.599Z,6.60
2022-11-14T17:51:18.127Z,6.17
2022-11-14T17:53:46.291Z,5.70
2022-11-14T17:56:16.948Z,6.50
2022-11-14T17:58:45.573Z,8.23
2022-11-14T18:01:14.452Z,6.57
2022-11-14T18:03:42.862Z,6.80
2022-11-14T18:06:11.640Z,5.77
2022-11-14T18:08:40.120Z,9.77
2022-11-14T18:11:08.935Z,11.03
2022-11-14T18:13:38.719Z,10.33
2022-11-14T18:16:08.205Z,8.87
2022-11-14T18:18:37.223Z,9.80
2022-11-14T18:21:09.336Z,9.37
2022-11-14T18:23:38.616Z,12.97
2022-11-14T18:26:13.299Z,9.70
2022-11-14T18:28:42.860Z,9.20
2022-11-14T18:31:11.811Z,9.33
2022-11-14T18:33:40.442Z,10.17
2022-11-14T18:36:09.829Z,10.90
2022-11-14T18:38:38.311Z,7.43
2022-11-14T18:41:09.331Z,9.33
2022-11-14T18:43:37.590Z,10.33
2022-11-14T18:46:07.995Z,10.90
2022-11-14T18:48:36.464Z,10.53
2022-11-14T18:51:04.841Z,9.90
2022-11-14T18:53:33.563Z,10.60
2022-11-14T18:56:04.702Z,11.13
2022-11-14T18:58:32.927Z,12.97
2022-11-14T19:01:01.438Z,10.97
2022-11-14T19:03:32.335Z,12.47
2022-11-14T19:06:03.350Z,10.00
2022-11-14T19:08:31.495Z,10.43
2022-11-14T19:11:01.942Z,13.37
2022-11-14T19:13:30.406Z,9.87
2022-11-14T19:16:02.659Z,12.97
2022-11-14T19:18:32.776Z,13.40
2022-11-14T19:21:01.554Z,13.60
2022-11-14T19:23:30.131Z,12.17
2022-11-14T19:26:00.720Z,11.93
2022-11-14T19:28:29.199Z,13.77
2022-11-14T19:31:02.905Z,13.43
2022-11-14T19:33:33.040Z,12.23
2022-11-14T19:36:06.096Z,10.53
2022-11-14T19:38:34.284Z,13.67
2022-11-14T19:41:07.395Z,14.17
2022-11-14T19:43:35.534Z,12.40
2022-11-14T19:46:04.351Z,15.37
2022-11-14T19:48:34.307Z,10.53
2022-11-14T19:51:03.335Z,16.53
2022-11-14T19:53:32.040Z,14.03
2022-11-14T19:56:01.280Z,14.07
2022-11-14T19:58:29.430Z,13.10
2022-11-14T20:01:03.800Z,18.50
2022-11-14T20:03:32.244Z,11.63
2022-11-14T20:06:02.061Z,12.17
2022-11-14T20:08:30.256Z,11.77
2022-11-14T20:10:59.455Z,12.77
2022-11-14T20:13:28.187Z,10.87
2022-11-14T20:15:56.561Z,14.23
2022-11-14T20:18:24.745Z,12.67
2022-11-14T20:20:52.967Z,13.70
2022-11-14T20:23:22.536Z,13.27
2022-11-14T20:25:52.745Z,11.97
2022-11-14T20:28:20.978Z,13.33
2022-11-14T20:30:49.184Z,12.53
2022-11-14T20:33:17.406Z,14.67
2022-11-14T20:35:46.034Z,10.50
2022-11-14T20:38:14.701Z,11.23
2022-11-14T20:40:44.257Z,13.13
2022-11-14T20:43:12.468Z,14.10
2022-11-14T20:45:40.648Z,16.30
2022-11-14T20:48:08.887Z,15.63
2022-11-14T20:50:37.074Z,10.23
2022-11-14T20:53:05.296Z,14.27
2022-11-14T20:55:33.479Z,12.60
2022-11-14T20:58:03.033Z,14.60
2022-11-14T21:00:31.228Z,11.97
2022-11-14T21:02:59.398Z,14.50
2022-11-14T21:05:27.587Z,13.13
2022-11-14T21:07:55.727Z,15.47
2022-11-14T21:10:41.633Z,13.07
2022-11-14T21:13:29.312Z,11.20
2022-11-14T21:15:57.931Z,13.73
2022-11-14T21:18:27.182Z,13.00
2022-11-14T21:21:02.136Z,15.10
2022-11-14T21:23:30.353Z,9.80
2022-11-14T21:26:05.802Z,15.67
2022-11-14T21:28:36.479Z,13.90
2022-11-14T21:31:13.977Z,15.43
2022-11-14T21:33:42.142Z,12.60
2022-11-14T21:36:38.047Z,9.73
2022-11-14T21:38:59.483Z,11.73
2022-11-14T21:41:28.852Z,12.73
2022-11-14T21:43:59.565Z,10.07
2022-11-14T21:46:27.842Z,11.97
2022-11-14T21:48:56.858Z,11.90
2022-11-14T21:51:26.160Z,13.63
2022-11-14T21:53:55.362Z,13.17
2022-11-14T21:56:24.416Z,14.70
2022-11-14T21:59:12.256Z,12.77
2022-11-14T22:01:59.992Z,14.27
2022-11-14T22:04:28.355Z,16.40
2022-11-14T22:06:56.704Z,12.87
2022-11-14T22:09:24.951Z,13.37
2022-11-14T22:11:53.107Z,12.83
2022-11-14T22:14:21.271Z,10.87
2022-11-14T22:16:50.751Z,13.23
2022-11-14T22:19:19.568Z,10.30
2022-11-14T22:21:47.766Z,9.13
2022-11-14T22:24:15.915Z,8.80
2022-11-14T22:26:44.056Z,9.20
2022-11-14T22:29:12.302Z,10.10
2022-11-14T22:31:40.471Z,9.10
2022-11-14T22:34:10.002Z,9.67
2022-11-14T22:36:38.206Z,11.73
2022-11-14T22:39:06.523Z,13.17
2022-11-14T22:41:34.770Z,14.23
2022-11-14T22:44:03.239Z,11.50
2022-11-14T22:46:31.597Z,13.27
2022-11-14T22:48:59.944Z,14.57
2022-11-14T22:51:29.783Z,11.90
2022-11-14T22:53:59.033Z,12.43
2022-11-14T22:56:27.954Z,9.20
2022-11-14T22:58:56.101Z,14.00
2022-11-14T23:01:25.383Z,10.87
2022-11-14T23:03:55.403Z,8.87
2022-11-14T23:06:23.924Z,9.87
2022-11-14T23:08:53.832Z,11.07
2022-11-14T23:11:23.536Z,10.67
2022-11-14T23:13:52.349Z,10.70
2022-11-14T23:16:21.262Z,11.43
2022-11-14T23:18:49.589Z,12.13
2022-11-14T23:21:18.862Z,12.33
2022-11-14T23:23:47.133Z,13.70
2022-11-14T23:26:17.884Z,10.40
2022-11-14T23:28:46.617Z,15.07
2022-11-14T23:31:18.879Z,12.67
2022-11-14T23:33:47.172Z,15.60
2022-11-14T23:36:15.371Z,11.80
2022-11-14T23:38:43.795Z,12.97
2022-11-14T23:41:16.610Z,13.33
2022-11-14T23:43:46.147Z,11.00
2022-11-14T23:46:14.441Z,9.40
2022-11-14T23:48:42.759Z,12.00
2022-11-14T23:51:11.430Z,10.77
2022-11-14T23:53:39.584Z,15.23
2022-11-14T23:56:07.926Z,12.43
2022-11-14T23:58:36.078Z,12.63
